Uliastai, Mongolia
Current Conditions -  °F | °C
As of 3:30 PM on Saturday 25 Oct 2014 (Local Time) from UIII Reporting Station
Clear Clear  
Wind Chill: 21°   Ceiling: Unl
Heat Index: 27°   Visibility: 6mi
Dew Point: 12°   Wind: 4mph
Humidity: 55%   Direction: 110°ESE
Pressure: 30.39"   Gusts: NA
Location:  47.75°N, 96.85°E
Report Text: UIII 250730Z 11002MPS 020V170 CAVOK M03/M11 Q1029 NOSIG RMKQFE727/0969 30950243
Loading
Personal Weather Stations






























Interactive Weather Map
Tropical Storm Tracking
New forecast layout! Learn more

10-Day Weather Forecast

Advertisements
Track Severe Weather on mobile